Time;durP1;ratioP1;P1;durP2;ratioP2;P2;SDS_P1;SDS_P2;PMS_P1;PMS_P2;Temp;Humidity;BMP_temperature;BMP_pressure;BME280_temperature;BME280_humidity;BME280_pressure;Samples;Min_cycle;Max_cycle;Signal;HPM_P1;HPM_P2
2022/08/06 00:00:26;;;;;;;;;0.00;0.00;;;;;23.82;29.76;102169.19;5076404;28;45623;-84
2022/08/06 00:02:51;;;;;;;;;0.67;0.67;;;;;23.78;30.15;102165.81;5076587;28;45587;-84
2022/08/06 00:05:16;;;;;;;;;1.00;0.00;;;;;23.76;30.30;102170.53;5076434;28;45448;-84
2022/08/06 00:07:42;;;;;;;;;0.00;0.00;;;;;23.76;29.96;102177.81;5076267;27;45319;-84
2022/08/06 00:10:08;;;;;;;;;0.00;0.00;;;;;23.69;29.78;102176.50;5074936;28;45446;-84
2022/08/06 00:12:34;;;;;;;;;2.00;1.00;;;;;23.71;30.04;102180.84;5075171;28;45440;-84
2022/08/06 00:15:00;;;;;;;;;0.33;0.33;;;;;23.70;30.16;102183.72;5076033;28;46367;-84
2022/08/06 00:17:26;;;;;;;;;1.00;1.00;;;;;23.69;29.98;102184.69;5075870;28;45516;-84
2022/08/06 00:19:51;;;;;;;;;1.33;1.00;;;;;23.66;30.48;102188.50;5076305;28;45472;-83
2022/08/06 00:22:16;;;;;;;;;0.33;0.33;;;;;23.64;30.08;102185.03;5077288;28;45432;-83
2022/08/06 00:24:42;;;;;;;;;2.67;0.00;;;;;23.62;30.21;102173.38;5079392;28;45973;-83
2022/08/06 00:27:07;;;;;;;;;0.00;0.00;;;;;23.60;30.79;102169.94;5079404;27;45576;-84
2022/08/06 00:29:33;;;;;;;;;0.33;0.33;;;;;23.56;30.50;102188.34;5079659;28;45436;-83
2022/08/06 00:31:58;;;;;;;;;0.33;0.00;;;;;23.53;30.85;102183.13;5079495;28;45459;-83
2022/08/06 00:34:23;;;;;;;;;0.33;0.33;;;;;23.51;30.56;102186.97;5079465;27;45511;-83
2022/08/06 00:36:49;;;;;;;;;0.67;0.67;;;;;23.47;30.52;102183.59;5079623;27;45486;-84
2022/08/06 00:39:14;;;;;;;;;0.67;0.33;;;;;23.45;30.94;102188.28;5078079;28;45543;-83
2022/08/06 00:41:40;;;;;;;;;1.00;1.00;;;;;23.43;31.01;102186.66;5079744;28;45496;-83
2022/08/06 00:44:05;;;;;;;;;0.00;0.00;;;;;23.32;31.33;102172.03;5079429;28;45493;-83
2022/08/06 00:46:31;;;;;;;;;1.00;1.00;;;;;23.35;31.17;102189.97;5060369;28;45593;-84
2022/08/06 00:48:56;;;;;;;;;1.67;0.00;;;;;23.34;30.86;102190.94;5059159;28;45673;-84
2022/08/06 00:51:22;;;;;;;;;0.00;0.00;;;;;23.32;30.98;102184.72;5059383;28;45440;-84
2022/08/06 00:53:49;;;;;;;;;0.00;0.00;;;;;23.28;31.54;102191.41;5058477;28;46196;-83
2022/08/06 00:56:14;;;;;;;;;0.00;0.00;;;;;23.25;31.68;102192.50;5059030;28;45465;-84
2022/08/06 00:58:40;;;;;;;;;0.00;0.00;;;;;23.22;31.42;102191.84;5058860;28;45420;-83
2022/08/06 01:01:05;;;;;;;;;0.67;0.00;;;;;23.17;31.61;102190.34;5058722;28;45442;-84
2022/08/06 01:03:30;;;;;;;;;1.00;1.00;;;;;23.11;31.69;102190.81;5058661;28;46039;-83
2022/08/06 01:05:56;;;;;;;;;2.00;1.00;;;;;23.14;31.68;102198.72;5058677;28;45433;-83
2022/08/06 01:08:21;;;;;;;;;1.67;0.67;;;;;23.00;31.86;102179.84;5058583;28;45524;-83
2022/08/06 01:10:47;;;;;;;;;0.67;0.67;;;;;23.09;31.83;102195.50;5059053;28;45430;-83
2022/08/06 01:13:13;;;;;;;;;0.00;0.00;;;;;23.07;32.12;102199.31;5058510;28;45995;-84
2022/08/06 01:15:41;;;;;;;;;1.00;1.00;;;;;23.04;31.73;102194.97;5040232;28;45402;-83
2022/08/06 01:18:26;;;;;;;;;0.00;0.00;;;;;23.00;32.24;102200.75;5058669;28;45366;-84
2022/08/06 01:21:17;;;;;;;;;2.00;1.00;;;;;22.99;31.80;102201.69;5058753;28;45434;-84
2022/08/06 01:23:52;;;;;;;;;0.33;0.33;;;;;22.96;32.14;102206.34;5058199;28;45479;-84
2022/08/06 01:26:49;;;;;;;;;0.00;0.00;;;;;22.94;32.44;102208.34;5058243;28;45547;-84
2022/08/06 01:29:27;;;;;;;;;1.67;1.67;;;;;22.87;32.17;102198.00;5038003;28;45615;-84
2022/08/06 01:32:06;;;;;;;;;1.67;0.00;;;;;22.85;32.62;102202.69;5038223;28;45515;-84
2022/08/06 01:34:48;;;;;;;;;0.00;0.00;;;;;22.84;32.28;102207.25;5037459;28;46127;-84
2022/08/06 01:37:30;;;;;;;;;1.00;1.00;;;;;22.83;32.65;102200.09;5020264;28;45450;-83
2022/08/06 01:40:00;;;;;;;;;3.00;2.00;;;;;22.68;32.56;102176.72;5044660;28;45432;-84
2022/08/06 01:42:28;;;;;;;;;0.00;0.00;;;;;22.80;32.73;102197.56;5058238;28;45522;-84
2022/08/06 01:44:56;;;;;;;;;1.00;1.00;;;;;22.79;32.49;102198.56;5062650;28;46419;-84
2022/08/06 01:47:26;;;;;;;;;1.67;0.00;;;;;22.76;33.12;102196.94;5078282;28;45690;-84
2022/08/06 01:49:55;;;;;;;;;1.00;1.00;;;;;22.77;32.58;102206.81;5078185;28;45418;-84
2022/08/06 01:52:24;;;;;;;;;1.00;1.00;;;;;22.75;32.72;102202.47;5078355;28;45483;-84
2022/08/06 01:54:50;;;;;;;;;0.00;0.00;;;;;22.74;33.07;102204.34;5077909;28;47379;-84
2022/08/06 01:57:18;;;;;;;;;1.33;1.33;;;;;22.72;32.82;102208.13;5077857;28;45471;-84
2022/08/06 01:59:48;;;;;;;;;0.00;0.00;;;;;22.63;33.07;102184.34;5077994;28;45661;-84
2022/08/06 02:02:19;;;;;;;;;1.00;1.00;;;;;22.69;32.70;102211.94;5078540;27;45455;-84
2022/08/06 02:04:47;;;;;;;;;1.00;0.00;;;;;22.68;33.29;102206.63;5078016;28;46269;-84
2022/08/06 02:07:16;;;;;;;;;0.33;0.33;;;;;22.67;33.04;102204.91;5077804;28;45567;-84
2022/08/06 02:09:45;;;;;;;;;1.67;1.00;;;;;22.63;33.40;102204.22;5077869;28;45436;-84
2022/08/06 02:12:14;;;;;;;;;0.00;0.00;;;;;22.62;33.32;102198.91;5076736;28;45404;-84
2022/08/06 02:14:49;;;;;;;;;0.33;0.33;;;;;22.59;32.97;102205.41;5077713;28;47131;-84
2022/08/06 02:17:16;;;;;;;;;2.00;1.00;;;;;22.57;33.51;102201.06;5077751;28;45397;-84
2022/08/06 02:19:46;;;;;;;;;0.00;0.00;;;;;22.43;33.19;102178.50;5077908;27;45531;-71
2022/08/06 02:22:13;;;;;;;;;1.00;1.00;;;;;22.53;33.29;102205.88;5078157;28;45498;-71
2022/08/06 02:24:39;;;;;;;;;2.67;1.00;;;;;22.51;33.06;102208.69;5077465;28;46279;-71
2022/08/06 02:27:07;;;;;;;;;1.67;1.00;;;;;22.50;33.22;102206.97;5077474;27;45410;-71
2022/08/06 02:29:33;;;;;;;;;3.00;1.00;;;;;22.46;33.25;102193.72;5077834;27;45588;-71
2022/08/06 02:31:59;;;;;;;;;2.00;0.00;;;;;22.40;33.67;102195.00;5077665;28;45524;-71
2022/08/06 02:34:24;;;;;;;;;0.00;0.00;;;;;22.41;33.83;102213.03;5076106;28;46226;-71
2022/08/06 02:36:58;;;;;;;;;0.00;0.00;;;;;22.37;33.32;102205.22;5077994;27;45838;-71
2022/08/06 02:39:28;;;;;;;;;1.00;1.00;;;;;22.36;33.84;102198.94;5077245;27;45435;-71
2022/08/06 02:42:03;;;;;;;;;0.00;0.00;;;;;22.32;33.46;102205.53;5077767;28;45521;-71
2022/08/06 02:44:38;;;;;;;;;1.33;0.00;;;;;22.29;33.86;102209.34;5075311;28;46574;-71
2022/08/06 02:47:13;;;;;;;;;1.00;1.00;;;;;22.26;34.21;102198.66;5056850;28;45803;-71
2022/08/06 02:49:45;;;;;;;;;0.00;0.00;;;;;22.07;33.99;102173.75;5039013;28;45451;-71
2022/08/06 02:52:17;;;;;;;;;1.00;1.00;;;;;22.19;34.20;102197.34;5057195;28;45481;-71
2022/08/06 02:54:56;;;;;;;;;1.00;1.00;;;;;22.16;33.92;102197.56;5056604;28;46452;-71
2022/08/06 02:57:28;;;;;;;;;0.00;0.00;;;;;22.13;33.77;102200.50;5038331;28;45441;-71
2022/08/06 03:00:01;;;;;;;;;0.00;0.00;;;;;22.10;34.02;102200.69;5056864;28;45512;-72
2022/08/06 03:02:29;;;;;;;;;1.67;1.67;;;;;22.09;33.93;102202.53;5057084;28;45424;-71
2022/08/06 03:04:57;;;;;;;;;1.00;1.00;;;;;22.09;33.88;102188.97;5056832;28;45358;-71
2022/08/06 03:07:28;;;;;;;;;0.00;0.00;;;;;22.06;34.17;102194.63;5056784;28;45797;-71
2022/08/06 03:09:54;;;;;;;;;1.00;1.00;;;;;22.05;34.26;102192.84;5056806;28;45421;-71
2022/08/06 03:12:20;;;;;;;;;1.33;0.67;;;;;22.03;34.46;102193.94;5056649;28;45595;-71
2022/08/06 03:14:48;;;;;;;;;1.00;1.00;;;;;21.99;34.01;102184.28;5056554;28;46381;-71
2022/08/06 03:17:16;;;;;;;;;0.33;0.33;;;;;21.98;33.89;102194.25;5056705;28;45383;-71
2022/08/06 03:19:44;;;;;;;;;0.00;0.00;;;;;21.97;33.90;102195.25;5056766;28;45449;-71
2022/08/06 03:22:11;;;;;;;;;0.00;0.00;;;;;21.96;33.99;102189.91;5038832;28;45553;-71
2022/08/06 03:24:38;;;;;;;;;0.00;0.00;;;;;21.92;34.55;102187.41;5056080;28;46036;-71
2022/08/06 03:27:04;;;;;;;;;1.00;1.00;;;;;21.90;34.00;102193.94;5060361;28;45484;-71
2022/08/06 03:29:33;;;;;;;;;0.33;0.00;;;;;21.88;34.88;102198.59;5058651;28;45474;-71
2022/08/06 03:32:00;;;;;;;;;0.00;0.00;;;;;21.88;34.89;102193.16;5076764;28;45520;-72
2022/08/06 03:34:29;;;;;;;;;0.00;0.00;;;;;21.81;34.81;102187.28;5076422;28;46207;-71
2022/08/06 03:36:57;;;;;;;;;1.00;1.00;;;;;21.85;34.67;102196.09;5076657;28;45497;-71
2022/08/06 03:39:25;;;;;;;;;2.00;1.00;;;;;21.79;34.52;102191.94;5076338;28;45623;-71
2022/08/06 03:41:52;;;;;;;;;2.00;0.00;;;;;21.82;34.79;102193.56;5076604;28;45422;-71
2022/08/06 03:44:18;;;;;;;;;1.67;1.00;;;;;21.81;35.16;102197.28;5076183;28;47321;-71
2022/08/06 03:46:48;;;;;;;;;0.00;0.00;;;;;21.78;34.70;102194.78;5018062;28;45466;-71
2022/08/06 03:49:37;;;;;;;;;1.00;1.00;;;;;21.74;34.75;102194.09;5018333;28;45541;-71
2022/08/06 03:52:04;;;;;;;;;0.33;0.33;;;;;21.73;35.10;102191.47;5036225;28;45504;-71
2022/08/06 03:54:33;;;;;;;;;0.67;0.67;;;;;21.71;34.93;102197.03;5035555;28;46660;-71
2022/08/06 03:57:08;;;;;;;;;0.67;0.67;;;;;21.69;34.69;102199.84;5037902;28;45424;-71
2022/08/06 03:59:36;;;;;;;;;1.67;0.67;;;;;21.69;34.71;102194.41;5039562;28;45468;-71
2022/08/06 04:02:03;;;;;;;;;0.67;0.67;;;;;21.68;34.90;102199.94;5039757;28;45551;-71
2022/08/06 04:04:31;;;;;;;;;1.00;1.00;;;;;21.65;34.99;102195.59;5039101;28;46264;-71
2022/08/06 04:06:58;;;;;;;;;1.00;1.00;;;;;21.54;35.29;102181.91;5039387;28;45403;-71
2022/08/06 04:09:26;;;;;;;;;0.00;0.00;;;;;21.60;35.07;102196.88;5039318;28;45383;-71
2022/08/06 04:11:53;;;;;;;;;0.33;0.33;;;;;21.56;35.16;102195.34;5039470;28;45459;-71
2022/08/06 04:14:19;;;;;;;;;0.00;0.00;;;;;21.53;35.41;102203.69;5039054;28;45531;-71
2022/08/06 04:16:45;;;;;;;;;0.00;0.00;;;;;21.42;35.39;102193.53;5039489;28;45761;-71
2022/08/06 04:19:13;;;;;;;;;1.00;1.00;;;;;21.41;34.98;102186.41;5039500;28;45538;-71
2022/08/06 04:21:39;;;;;;;;;1.33;1.33;;;;;21.48;35.38;102217.56;5039493;28;45431;-71
2022/08/06 04:24:04;;;;;;;;;3.00;0.00;;;;;21.44;35.21;102207.88;5038847;28;45971;-71
2022/08/06 04:26:31;;;;;;;;;0.00;0.00;;;;;21.43;35.15;102214.28;5039131;28;45457;-71
2022/08/06 04:29:01;;;;;;;;;0.00;0.00;;;;;21.32;34.83;102200.53;5078823;28;45398;-71
2022/08/06 04:31:29;;;;;;;;;0.67;0.67;;;;;21.40;34.29;102214.47;5079507;28;45453;-71
2022/08/06 04:33:56;;;;;;;;;0.33;0.33;;;;;21.38;34.58;102221.84;5079380;28;45498;-71
2022/08/06 04:36:21;;;;;;;;;1.67;0.33;;;;;21.35;34.61;102222.88;5079429;28;45397;-71
2022/08/06 04:38:47;;;;;;;;;0.00;0.00;;;;;21.25;34.89;102210.91;5079178;28;45401;-71
2022/08/06 04:41:13;;;;;;;;;0.00;0.00;;;;;21.27;35.13;102228.81;5079470;28;45539;-71
2022/08/06 04:43:39;;;;;;;;;0.00;0.00;;;;;21.19;35.16;102214.91;5078988;28;46025;-71
2022/08/06 04:46:06;;;;;;;;;1.33;0.00;;;;;21.20;34.74;102221.19;5042676;28;45998;-71
2022/08/06 04:48:34;;;;;;;;;0.00;0.00;;;;;21.14;34.70;102219.75;5038945;28;45481;-71
2022/08/06 04:51:03;;;;;;;;;0.67;0.33;;;;;21.17;34.72;102243.09;5038783;28;45400;-71
2022/08/06 04:53:35;;;;;;;;;0.67;0.67;;;;;21.16;35.14;102250.34;5038525;28;45411;-71
2022/08/06 04:56:00;;;;;;;;;1.00;1.00;;;;;21.16;34.77;102249.47;5020562;28;46112;-71
2022/08/06 04:58:26;;;;;;;;;2.33;0.33;;;;;21.17;34.53;102256.66;5038815;28;45641;-71
2022/08/06 05:00:51;;;;;;;;;0.00;0.00;;;;;21.17;34.46;102253.94;5039183;28;45422;-71
2022/08/06 05:03:17;;;;;;;;;0.67;0.67;;;;;21.17;34.90;102256.66;5038771;28;45319;-71
2022/08/06 05:05:53;;;;;;;;;0.67;0.00;;;;;21.17;34.54;102262.06;5038699;28;45320;-71
2022/08/06 05:08:20;;;;;;;;;0.00;0.00;;;;;21.16;34.59;102257.59;5037794;28;45467;-71
2022/08/06 05:11:00;;;;;;;;;1.00;1.00;;;;;21.18;34.70;102261.09;5038475;28;45459;-71
2022/08/06 05:13:30;;;;;;;;;0.33;0.33;;;;;21.19;34.81;102263.72;5038098;28;45591;-71
2022/08/06 05:16:00;;;;;;;;;1.00;0.00;;;;;21.19;34.61;102266.44;5038308;28;45394;-71
2022/08/06 05:18:33;;;;;;;;;0.00;0.00;;;;;21.21;34.69;102255.47;5038380;28;45395;-71
2022/08/06 05:21:00;;;;;;;;;0.00;0.00;;;;;21.19;34.93;102263.72;5038613;28;45690;-71
2022/08/06 05:23:44;;;;;;;;;2.00;1.00;;;;;21.20;35.04;102264.56;5038132;28;46229;-71
2022/08/06 05:26:10;;;;;;;;;1.00;0.00;;;;;21.17;34.58;102254.81;5038064;28;45375;-71
2022/08/06 05:28:39;;;;;;;;;0.00;0.00;;;;;21.11;34.90;102246.19;5053725;28;45391;-71
2022/08/06 05:31:04;;;;;;;;;0.00;0.00;;;;;21.21;34.73;102269.91;5078685;28;45600;-71
2022/08/06 05:33:32;;;;;;;;;0.00;0.00;;;;;21.22;34.45;102260.78;5078520;28;46047;-71
2022/08/06 05:35:59;;;;;;;;;0.33;0.33;;;;;21.22;34.56;102262.66;5078237;28;45471;-71
2022/08/06 05:38:28;;;;;;;;;0.00;0.00;;;;;21.21;34.94;102269.91;5078537;28;45400;-71
2022/08/06 05:40:55;;;;;;;;;0.67;0.67;;;;;21.16;34.67;102263.03;5078439;28;45463;-71
2022/08/06 05:43:21;;;;;;;;;1.33;0.67;;;;;21.23;34.74;102264.38;5078199;28;47273;-71
2022/08/06 05:45:49;;;;;;;;;0.00;0.00;;;;;21.26;34.79;102273.19;5065889;28;45456;-71
2022/08/06 05:48:18;;;;;;;;;0.33;0.33;;;;;21.29;34.70;102272.97;5058048;28;45419;-71
2022/08/06 05:50:49;;;;;;;;;0.00;0.00;;;;;21.35;34.43;102276.25;5057996;28;45502;-71
2022/08/06 05:53:21;;;;;;;;;0.00;0.00;;;;;21.28;34.83;102263.13;5057797;28;47104;-71
2022/08/06 05:55:56;;;;;;;;;0.00;0.00;;;;;21.38;34.25;102286.94;5057636;28;45494;-71
2022/08/06 05:58:41;;;;;;;;;2.00;1.00;;;;;21.42;34.22;102283.06;5057803;28;45450;-71
2022/08/06 06:01:08;;;;;;;;;0.00;0.00;;;;;21.46;33.98;102287.31;5058044;28;45475;-71
2022/08/06 06:03:37;;;;;;;;;0.00;0.00;;;;;21.46;33.97;102282.75;5057761;28;45445;-71
2022/08/06 06:06:03;;;;;;;;;0.00;0.00;;;;;21.54;34.27;102286.81;5057590;28;45439;-71
2022/08/06 06:08:29;;;;;;;;;0.67;0.67;;;;;21.53;33.90;102282.38;5057489;28;45489;-71
2022/08/06 06:10:56;;;;;;;;;0.00;0.00;;;;;21.57;34.06;102283.94;5057996;28;45494;-71
2022/08/06 06:13:23;;;;;;;;;2.00;0.00;;;;;21.63;34.08;102283.50;5057581;28;45515;-71
2022/08/06 06:15:57;;;;;;;;;1.67;0.67;;;;;21.65;33.96;102292.41;5039245;28;45542;-71
2022/08/06 06:18:44;;;;;;;;;0.67;0.67;;;;;21.66;33.80;102292.31;5057746;28;45496;-71
2022/08/06 06:21:20;;;;;;;;;0.00;0.00;;;;;21.68;34.33;102293.09;5038261;28;45455;-71
2022/08/06 06:23:51;;;;;;;;;1.00;1.00;;;;;21.69;34.20;102292.13;5057109;28;45506;-71
2022/08/06 06:26:28;;;;;;;;;0.00;0.00;;;;;21.72;33.63;102293.75;5057401;28;45529;-71
2022/08/06 06:29:07;;;;;;;;;1.33;0.00;;;;;21.71;33.96;102286.59;5076691;28;45394;-71
2022/08/06 06:31:50;;;;;;;;;1.00;0.00;;;;;21.75;34.18;102289.97;5077722;28;45515;-71
2022/08/06 06:34:22;;;;;;;;;0.00;0.00;;;;;21.78;34.28;102287.06;5077254;28;45500;-71
2022/08/06 06:37:07;;;;;;;;;0.00;0.00;;;;;21.82;34.15;102288.56;5077889;28;45454;-71
2022/08/06 06:40:22;;;;;;;;;0.33;0.33;;;;;21.85;33.92;102280.25;5077291;28;45530;-71
2022/08/06 06:43:04;;;;;;;;;0.33;0.33;;;;;21.89;33.68;102284.47;4936637;28;45563;-71
2022/08/06 06:45:42;;;;;;;;;0.00;0.00;;;;;21.92;33.88;102287.88;4926799;28;45537;-71
2022/08/06 06:48:21;;;;;;;;;0.67;0.67;;;;;21.96;33.71;102298.50;4917019;28;45518;-71
2022/08/06 06:50:52;;;;;;;;;0.00;0.00;;;;;22.01;33.47;102299.06;4917107;28;45354;-71
2022/08/06 06:53:20;;;;;;;;;2.00;1.00;;;;;22.07;33.22;102290.53;4917302;28;45573;-71
2022/08/06 06:55:47;;;;;;;;;1.00;1.00;;;;;22.10;33.25;102287.59;4916632;28;46276;-71
2022/08/06 06:58:20;;;;;;;;;0.67;0.00;;;;;22.13;33.17;102290.97;4917202;28;45526;-71
2022/08/06 07:00:46;;;;;;;;;1.00;1.00;;;;;22.20;33.11;102290.56;4916965;28;45767;-71
2022/08/06 07:03:12;;;;;;;;;1.00;1.00;;;;;22.23;32.74;102293.97;4917203;28;45499;-71
2022/08/06 07:05:43;;;;;;;;;0.33;0.33;;;;;22.26;32.05;102296.47;4916706;28;46823;-72
2022/08/06 07:08:11;;;;;;;;;0.00;0.00;;;;;22.29;32.20;102298.13;4916796;28;45515;-71
2022/08/06 07:10:39;;;;;;;;;0.00;0.00;;;;;22.38;31.99;102302.03;4916662;28;45453;-71
2022/08/06 07:13:07;;;;;;;;;0.00;0.00;;;;;22.42;32.69;102307.16;4917126;28;45561;-71
2022/08/06 07:15:34;;;;;;;;;0.00;0.00;;;;;22.26;32.24;102280.16;4932785;28;47695;-71
2022/08/06 07:18:01;;;;;;;;;0.00;0.00;;;;;22.51;31.52;102308.38;4932643;28;45618;-84
2022/08/06 07:20:29;;;;;;;;;0.00;0.00;;;;;22.60;32.18;102309.59;5018052;28;45598;-84
2022/08/06 07:22:59;;;;;;;;;0.00;0.00;;;;;22.63;32.02;102309.38;5036740;28;45449;-84
2022/08/06 07:25:26;;;;;;;;;0.00;0.00;;;;;22.70;31.75;102314.25;5036233;28;47427;-84
2022/08/06 07:27:51;;;;;;;;;0.00;0.00;;;;;22.75;31.19;102316.66;5057305;28;45435;-84
2022/08/06 07:30:19;;;;;;;;;0.33;0.33;;;;;22.79;30.96;102318.19;5058486;28;45461;-84
2022/08/06 07:32:46;;;;;;;;;0.00;0.00;;;;;22.84;31.16;102313.28;5058304;28;45388;-83
2022/08/06 07:35:13;;;;;;;;;2.00;1.00;;;;;22.90;31.07;102315.59;5076294;28;47187;-84
2022/08/06 07:37:44;;;;;;;;;0.00;0.00;;;;;22.97;30.58;102322.31;5076719;28;45421;-84
2022/08/06 07:40:18;;;;;;;;;0.00;0.00;;;;;22.94;30.58;102303.50;5076566;28;45499;-84
2022/08/06 07:42:47;;;;;;;;;2.67;1.00;;;;;23.05;30.58;102304.63;5076782;28;45429;-84
2022/08/06 07:45:13;;;;;;;;;1.00;1.00;;;;;23.16;29.95;102315.59;5068916;28;46391;-84
2022/08/06 07:47:41;;;;;;;;;0.00;0.00;;;;;23.18;30.12;102306.34;5056129;28;45459;-84
2022/08/06 07:50:10;;;;;;;;;0.00;0.00;;;;;23.28;29.82;102311.13;5056228;28;45451;-84
2022/08/06 07:52:39;;;;;;;;;1.67;0.00;;;;;23.34;29.59;102318.81;5056443;28;45545;-83
2022/08/06 07:55:05;;;;;;;;;0.00;0.00;;;;;23.38;29.45;102317.63;5056140;28;47443;-84
2022/08/06 07:57:32;;;;;;;;;1.00;0.00;;;;;23.37;29.18;102303.16;5056215;28;45356;-84
2022/08/06 07:59:58;;;;;;;;;0.00;0.00;;;;;23.48;29.55;102315.09;5056179;28;45385;-84
2022/08/06 08:02:24;;;;;;;;;1.00;0.00;;;;;23.52;29.76;102308.44;5056250;28;45760;-84
2022/08/06 08:07:36;;;;;;;;;1.00;0.00;;;;;23.71;29.64;102319.69;5055780;28;45570;-84
2022/08/06 08:10:02;;;;;;;;;0.00;0.00;;;;;23.77;29.31;102324.72;5055907;28;45560;-84
2022/08/06 08:12:28;;;;;;;;;0.00;0.00;;;;;23.74;28.80;102316.81;5056232;28;45660;-84
2022/08/06 08:14:54;;;;;;;;;1.00;1.00;;;;;23.87;28.78;102324.91;5055581;28;46110;-84
2022/08/06 08:17:19;;;;;;;;;0.00;0.00;;;;;23.94;28.76;102334.34;5055906;28;45375;-84
2022/08/06 08:19:44;;;;;;;;;0.00;0.00;;;;;24.00;28.03;102327.59;5055952;28;45376;-71
2022/08/06 08:22:10;;;;;;;;;0.00;0.00;;;;;24.05;28.09;102329.97;5056222;28;45355;-71
2022/08/06 08:24:37;;;;;;;;;0.00;0.00;;;;;24.01;27.89;102313.84;5055686;28;46511;-71
2022/08/06 08:27:03;;;;;;;;;0.00;0.00;;;;;24.13;27.64;102332.97;5059730;28;45422;-71
2022/08/06 08:29:29;;;;;;;;;0.00;0.00;;;;;24.18;27.53;102330.75;5075788;28;45455;-71
2022/08/06 08:31:55;;;;;;;;;0.00;0.00;;;;;24.18;27.98;102319.84;5076228;28;45442;-71
2022/08/06 08:34:20;;;;;;;;;0.00;0.00;;;;;24.36;28.05;102329.34;5076078;28;45740;-71
2022/08/06 08:36:46;;;;;;;;;0.00;0.00;;;;;24.40;27.93;102316.38;5057895;28;45535;-71
2022/08/06 08:39:11;;;;;;;;;0.00;0.00;;;;;24.53;27.41;102327.19;5057654;28;45460;-71
2022/08/06 08:41:43;;;;;;;;;0.00;0.00;;;;;24.52;27.69;102309.13;5076118;28;45378;-71
2022/08/06 08:44:09;;;;;;;;;0.00;0.00;;;;;24.71;26.74;102324.91;5077195;28;47338;-71
2022/08/06 08:46:37;;;;;;;;;0.00;0.00;;;;;24.81;27.34;102317.72;5022023;28;45482;-71
2022/08/06 08:49:05;;;;;;;;;0.00;0.00;;;;;25.00;26.62;102309.81;5021265;28;45464;-71
2022/08/06 08:51:36;;;;;;;;;0.00;0.00;;;;;25.23;27.03;102316.16;5038997;28;45391;-71
2022/08/06 08:54:05;;;;;;;;;0.00;0.00;;;;;26.26;26.08;102310.34;5038799;28;46300;-71
2022/08/06 08:56:32;;;;;;;;;2.00;0.00;;;;;26.91;24.81;102311.13;5038561;28;46224;-71
2022/08/06 08:58:58;;;;;;;;;0.00;0.00;;;;;31.10;21.15;102287.81;5038589;28;45419;-71
2022/08/06 09:01:24;;;;;;;;;0.67;0.00;;;;;35.23;17.60;102286.00;5038978;28;45459;-71
2022/08/06 09:03:50;;;;;;;;;0.00;0.00;;;;;37.94;14.49;102285.56;5038403;28;45411;-71
2022/08/06 09:06:16;;;;;;;;;3.00;1.00;;;;;39.85;13.89;102286.44;5038649;28;45477;-72
2022/08/06 09:08:42;;;;;;;;;0.00;0.00;;;;;41.43;12.57;102303.88;5038951;28;45426;-72
2022/08/06 09:11:07;;;;;;;;;0.00;0.00;;;;;42.72;11.45;102301.41;5038955;28;45552;-72
2022/08/06 09:13:32;;;;;;;;;4.00;0.67;;;;;43.91;10.95;102304.75;5038266;28;45882;-72
2022/08/06 09:15:58;;;;;;;;;0.00;0.00;;;;;44.94;10.72;102310.97;5038460;28;45464;-72
2022/08/06 09:18:25;;;;;;;;;0.33;0.33;;;;;45.72;9.95;102293.88;5038468;28;45387;-86
2022/08/06 09:20:51;;;;;;;;;1.00;1.00;;;;;46.53;9.08;102316.34;5038880;28;45476;-86
2022/08/06 09:23:17;;;;;;;;;0.00;0.00;;;;;47.27;9.10;102310.81;5038157;28;46103;-86
2022/08/06 09:25:50;;;;;;;;;0.00;0.00;;;;;47.83;8.34;102322.25;5038067;28;45371;-86
2022/08/06 09:28:35;;;;;;;;;0.00;0.00;;;;;48.44;8.49;102323.44;5066147;28;45427;-85
2022/08/06 09:31:04;;;;;;;;;0.00;0.00;;;;;49.02;8.18;102323.88;5078822;28;45324;-86
2022/08/06 09:33:32;;;;;;;;;0.00;0.00;;;;;49.51;7.81;102322.25;5078529;28;46399;-86
2022/08/06 09:36:00;;;;;;;;;0.33;0.33;;;;;49.79;7.45;102321.50;5077183;28;45374;-85
2022/08/06 09:38:27;;;;;;;;;0.00;0.00;;;;;50.18;7.10;102325.44;5078500;28;45425;-86
2022/08/06 09:41:02;;;;;;;;;0.00;0.00;;;;;50.61;6.94;102326.47;5078670;28;45520;-86
2022/08/06 09:43:28;;;;;;;;;0.00;0.00;;;;;50.91;6.50;102318.75;5078370;28;46151;-86
2022/08/06 09:45:53;;;;;;;;;0.00;0.00;;;;;51.12;6.44;102330.72;5065210;28;45489;-86
2022/08/06 09:48:18;;;;;;;;;0.00;0.00;;;;;51.37;6.24;102320.97;5058441;28;45674;-86
2022/08/06 09:50:45;;;;;;;;;0.00;0.00;;;;;51.60;6.16;102319.25;5040411;28;45612;-86
2022/08/06 09:53:12;;;;;;;;;1.00;0.00;;;;;51.78;6.31;102314.72;5058224;28;46048;-86
2022/08/06 09:55:38;;;;;;;;;0.00;0.00;;;;;51.96;6.44;102321.53;5058011;28;45477;-86
2022/08/06 09:58:04;;;;;;;;;0.00;0.00;;;;;52.12;5.69;102320.16;5058131;28;45447;-86
2022/08/06 10:00:34;;;;;;;;;0.00;0.00;;;;;52.41;6.10;102321.03;5058156;28;45513;-86
2022/08/06 10:03:02;;;;;;;;;0.00;0.00;;;;;52.58;5.94;102332.69;5057638;28;46912;-86
2022/08/06 10:05:29;;;;;;;;;0.00;0.00;;;;;52.68;5.44;102321.06;5057760;28;45521;-86
2022/08/06 10:08:09;;;;;;;;;0.00;0.00;;;;;52.69;5.87;102316.25;5057792;28;45702;-86
2022/08/06 10:10:49;;;;;;;;;0.00;0.00;;;;;52.76;6.00;102328.09;5057527;28;45546;-86
2022/08/06 10:13:17;;;;;;;;;0.00;0.00;;;;;52.83;5.80;102319.97;5057308;28;45620;-85
2022/08/06 10:15:45;;;;;;;;;0.00;0.00;;;;;52.91;5.64;102326.91;5057651;28;45462;-86
2022/08/06 10:18:29;;;;;;;;;0.00;0.00;;;;;52.95;5.33;102320.25;5058222;28;45799;-72
2022/08/06 10:21:03;;;;;;;;;0.00;0.00;;;;;52.95;5.62;102319.41;5057996;28;45496;-72
2022/08/06 10:23:34;;;;;;;;;0.33;0.00;;;;;52.94;5.46;102312.88;5057355;28;45485;-72
2022/08/06 10:26:06;;;;;;;;;0.00;0.00;;;;;52.86;5.52;102319.31;5057187;28;45335;-72
2022/08/06 10:28:34;;;;;;;;;0.00;0.00;;;;;52.73;5.43;102311.56;5073987;28;45527;-72
2022/08/06 10:31:05;;;;;;;;;0.00;0.00;;;;;52.65;5.74;102315.19;5077951;28;45436;-72
2022/08/06 10:33:36;;;;;;;;;1.00;1.00;;;;;52.38;5.46;102311.09;5077625;28;46206;-70
2022/08/06 10:36:09;;;;;;;;;0.00;0.00;;;;;52.07;5.33;102314.50;5077655;28;45484;-70
2022/08/06 10:38:37;;;;;;;;;0.00;0.00;;;;;51.58;5.66;102300.81;5077667;28;45473;-70
2022/08/06 10:41:08;;;;;;;;;0.00;0.00;;;;;51.20;5.23;102307.31;5077393;28;45803;-70
2022/08/06 10:43:36;;;;;;;;;0.33;0.00;;;;;51.21;5.55;102300.50;5077386;28;46320;-70
2022/08/06 10:46:07;;;;;;;;;0.00;0.00;;;;;51.01;5.70;102300.72;5062873;28;45379;-70
2022/08/06 10:48:37;;;;;;;;;0.00;0.00;;;;;50.87;5.75;102301.47;5056910;28;45498;-70
2022/08/06 10:51:04;;;;;;;;;0.00;0.00;;;;;50.63;5.82;102309.13;5057446;28;45552;-70
2022/08/06 10:53:39;;;;;;;;;0.00;0.00;;;;;50.33;5.88;102304.59;5057064;28;46677;-70
2022/08/06 10:56:06;;;;;;;;;0.00;0.00;;;;;49.96;6.32;102306.06;5056684;28;45729;-70
2022/08/06 10:58:33;;;;;;;;;0.67;0.67;;;;;49.56;6.59;102277.69;5038771;28;45478;-70
2022/08/06 11:01:00;;;;;;;;;0.00;0.00;;;;;49.10;6.58;102255.28;5057111;28;45459;-70
2022/08/06 11:03:55;;;;;;;;;0.00;0.00;;;;;48.84;6.94;102248.88;5056613;28;47204;-70
2022/08/06 11:06:35;;;;;;;;;0.00;0.00;;;;;48.60;7.51;102260.88;4993529;28;45455;-70
2022/08/06 11:09:38;;;;;;;;;0.00;0.00;;;;;48.32;6.75;102253.84;4994438;28;45878;-70
2022/08/06 11:12:09;;;;;;;;;2.00;0.00;;;;;48.12;7.12;102260.38;4994623;28;45505;-70
2022/08/06 11:14:37;;;;;;;;;0.00;0.00;;;;;47.74;6.98;102247.63;4994365;28;45584;-69
2022/08/06 11:17:03;;;;;;;;;0.00;0.00;;;;;47.34;7.67;102258.56;4994440;28;45609;-70
2022/08/06 11:19:45;;;;;;;;;0.00;0.00;;;;;46.81;7.57;102242.84;4994487;28;45380;-70
2022/08/06 11:22:35;;;;;;;;;0.00;0.00;;;;;46.19;8.15;102244.41;4994760;28;45515;-70
2022/08/06 11:25:08;;;;;;;;;0.00;0.00;;;;;45.61;8.05;102216.84;4993970;28;47151;-70
2022/08/06 11:28:01;;;;;;;;;0.00;0.00;;;;;44.97;8.07;102240.06;4986558;28;45463;-70
2022/08/06 11:31:03;;;;;;;;;0.00;0.00;;;;;43.66;8.69;102232.94;5013940;28;45588;-70
2022/08/06 11:33:34;;;;;;;;;0.00;0.00;;;;;43.25;8.89;102228.47;5007442;28;45626;-70
2022/08/06 11:36:00;;;;;;;;;1.00;0.00;;;;;42.88;9.11;102218.47;5013864;28;47157;-70
2022/08/06 11:38:46;;;;;;;;;0.00;0.00;;;;;42.43;9.70;102227.56;5013469;28;45489;-70
2022/08/06 11:41:29;;;;;;;;;0.00;0.00;;;;;42.06;9.40;102210.94;5030808;28;45711;-70